Flight Track Log - Related Links

Times and Time Zones

All times are in EST time to prevent confusion due to time zone crossing. See the UCA3596 flight status page for this flight to view local times or setup timezone preferences in your user account.

Time Position Orientation Groundspeed Altitude Reporting Facility
EST Latitude Longitude Course Direction KTS MPH feet Rate Location/Type
Thu 03:31:00 PM 40.6832 -76.6911 19° North  Level Estimated
Thu 03:32:00 PM 40.7499 -76.6607 19° North  Level Estimated
Thu 03:33:00 PM 40.8165 -76.6303 19° North  Level Estimated
Thu 03:34:00 PM 40.8832 -76.5998 19° North  Level Estimated
Thu 03:35:00 PM 40.9498 -76.5693 19° North  Level Estimated
Thu 03:36:00 PM 41.0164 -76.5386 19° North  Level Estimated
Thu 03:37:00 PM 41.0830 -76.5080 19° North  Level Estimated
Thu 03:38:00 PM 41.1497 -76.4772 19° North  Level Estimated
Thu 03:39:00 PM 41.2163 -76.4464 19° North  Level Estimated
Thu 03:40:00 PM 41.2828 -76.4156 19° North  Level Estimated
Thu 03:41:00 PM 41.3494 -76.3847 19° North  Level Estimated
Thu 03:42:00 PM 41.4160 -76.3537 19° North  Level Estimated
Thu 03:43:00 PM 41.4826 -76.3226 19° North  Level Estimated
Thu 03:44:00 PM 41.5491 -76.2915 19° North  Level Estimated
Thu 03:45:00 PM 41.6157 -76.2603 19° North  Level Estimated
Thu 03:46:00 PM 41.6822 -76.2291 19° North  Level Estimated
Thu 03:47:00 PM 41.7487 -76.1978 19° North  Level Estimated
Thu 03:48:00 PM 41.8153 -76.1664 19° North  Level Estimated
Thu 03:49:00 PM 41.8818 -76.1350 19° North  Level Estimated
Thu 03:50:00 PM 41.9483 -76.1035 19° North  Level Estimated
Thu 03:51:00 PM 42.0148 -76.0719 19° North  Level Estimated
Thu 03:52:00 PM 42.0813 -76.0403 19° North  Level Estimated
Thu 03:53:00 PM 42.1478 -76.0086 19° North  Level Estimated
Thu 03:54:00 PM 42.2084 -75.9796 19° North  Level Estimated
Thu 03:55:00 PM 42.2084 -75.9796 35° Northeast  Level Estimated
Thu 03:56:00 PM 42.2084 -75.9796 35° Northeast  Level Estimated
Thu 03:57:00 PM 42.2084 -75.9796 35° Northeast  Level Estimated
Thu 03:58:00 PM 42.2084 -75.9796 35° Northeast  Level Estimated
Thu 03:59:00 PM 42.2084 -75.9796 35° Northeast  Level Estimated
Thu 04:00:00 PM 42.2084 -75.9796 35° Northeast  Level Estimated
Thu 04:01:00 PM 42.2084 -75.9796 35° Northeast  Level Estimated
Thu 04:02:00 PM 42.2084 -75.9796 35° Northeast  Level Estimated
Thu 04:03:00 PM 42.2084 -75.9796 35° Northeast  Level Estimated
Thu 04:04:00 PM 42.2084 -75.9796 35° Northeast  Level Estimated
Thu 04:05:00 PM 42.2084 -75.9796 35° Northeast  Level Estimated
Thu 04:06:00 PM 42.2084 -75.9796 35° Northeast  Level Estimated
Thu 04:07:00 PM 42.2084 -75.9796 35° Northeast  Level Estimated
Thu 04:08:00 PM 42.2084 -75.9796 35° Northeast  Level Estimated
Thu 04:09:00 PM 42.2084 -75.9796 35° Northeast  Level Estimated
Thu 04:10:00 PM 42.2084 -75.9796 35° Northeast  Level Estimated

Login

Don't have an account? Register now (free) for customized features, flight alerts, and more!